createdAt,value
2018-07-09T00:01:14.674Z,5.80
2018-07-09T00:03:43.378Z,6.57
2018-07-09T00:06:12.124Z,5.20
2018-07-09T00:08:40.749Z,5.83
2018-07-09T00:11:09.402Z,6.37
2018-07-09T00:13:38.798Z,6.93
2018-07-09T00:16:07.523Z,7.03
2018-07-09T00:18:36.217Z,6.57
2018-07-09T00:21:04.943Z,6.93
2018-07-09T00:23:33.640Z,6.80
2018-07-09T00:26:02.350Z,6.67
2018-07-09T00:28:31.062Z,7.33
2018-07-09T00:31:02.846Z,7.73
2018-07-09T00:33:31.573Z,6.37
2018-07-09T00:36:00.306Z,6.73
2018-07-09T00:38:28.977Z,7.67
2018-07-09T00:40:57.750Z,6.20
2018-07-09T00:43:26.949Z,6.90
2018-07-09T00:45:55.766Z,6.70
2018-07-09T00:48:24.673Z,7.07
2018-07-09T00:50:53.357Z,6.33
2018-07-09T00:53:22.094Z,6.70
2018-07-09T00:55:50.837Z,6.97
2018-07-09T00:58:19.621Z,6.87
2018-07-09T01:00:48.336Z,6.53
2018-07-09T01:03:17.031Z,7.57
2018-07-09T01:05:45.770Z,7.17
2018-07-09T01:08:14.543Z,7.00
2018-07-09T01:10:54.400Z,7.10
2018-07-09T01:13:54.352Z,9.70
2018-07-09T01:16:23.069Z,6.63
2018-07-09T01:18:51.801Z,7.43
2018-07-09T01:21:20.541Z,8.20
2018-07-09T01:23:49.236Z,7.07
2018-07-09T01:26:17.938Z,7.50
2018-07-09T01:28:46.649Z,7.67
2018-07-09T01:31:15.368Z,7.27
2018-07-09T01:33:44.089Z,7.50
2018-07-09T01:36:12.762Z,7.27
2018-07-09T01:38:41.436Z,10.80
2018-07-09T01:41:10.505Z,8.10
2018-07-09T01:43:39.149Z,9.03
2018-07-09T01:46:07.828Z,8.33
2018-07-09T01:48:36.506Z,7.73
2018-07-09T01:51:05.404Z,7.83
2018-07-09T01:53:34.405Z,8.03
2018-07-09T01:56:03.166Z,8.13
2018-07-09T01:58:31.840Z,8.43
2018-07-09T02:01:00.548Z,7.60
2018-07-09T02:03:29.169Z,8.27
2018-07-09T02:05:57.833Z,8.23
2018-07-09T02:08:26.488Z,8.37
2018-07-09T02:10:55.198Z,8.30
2018-07-09T02:13:23.881Z,7.90
2018-07-09T02:15:52.618Z,8.37
2018-07-09T02:18:21.320Z,8.23
2018-07-09T02:20:50.019Z,8.07
2018-07-09T02:23:18.714Z,8.93
2018-07-09T02:25:47.372Z,7.90
2018-07-09T02:28:16.020Z,7.87
2018-07-09T02:30:44.700Z,9.27
2018-07-09T02:33:13.381Z,8.87
2018-07-09T02:35:42.129Z,10.07
2018-07-09T02:38:10.814Z,8.27
2018-07-09T02:40:39.544Z,7.63
2018-07-09T02:43:08.219Z,8.97
2018-07-09T02:45:37.282Z,8.57
2018-07-09T02:48:06.406Z,9.33
2018-07-09T02:50:35.177Z,8.83
2018-07-09T02:53:04.048Z,9.10
2018-07-09T02:55:32.731Z,8.57
2018-07-09T02:58:01.414Z,9.57
2018-07-09T03:00:30.310Z,9.00
2018-07-09T03:02:58.991Z,9.10
2018-07-09T03:05:27.689Z,9.10
2018-07-09T03:07:56.374Z,8.27
2018-07-09T03:10:25.045Z,8.40
2018-07-09T03:12:53.729Z,10.47
2018-07-09T03:15:22.408Z,9.27
2018-07-09T03:17:51.070Z,8.20
2018-07-09T03:20:19.755Z,7.97
2018-07-09T03:22:48.501Z,8.30
2018-07-09T03:25:17.165Z,8.60
2018-07-09T03:27:45.839Z,9.33
2018-07-09T03:30:14.529Z,8.60
2018-07-09T03:32:43.172Z,9.23
2018-07-09T03:35:11.841Z,9.00
2018-07-09T03:37:40.510Z,10.07
2018-07-09T03:40:09.251Z,9.67
2018-07-09T03:42:37.934Z,9.03
2018-07-09T03:45:06.601Z,8.77
2018-07-09T03:47:35.337Z,9.53
2018-07-09T03:50:04.036Z,9.23
2018-07-09T03:52:32.753Z,9.10
2018-07-09T03:55:01.441Z,8.53
2018-07-09T03:57:30.256Z,8.90
2018-07-09T03:59:58.937Z,9.97
2018-07-09T04:02:27.638Z,9.47
2018-07-09T04:04:56.281Z,9.27
2018-07-09T04:07:24.927Z,9.80
2018-07-09T04:09:53.610Z,10.53
2018-07-09T04:12:22.265Z,9.50
2018-07-09T04:14:50.928Z,9.60
2018-07-09T04:17:19.661Z,8.90
2018-07-09T04:19:48.304Z,8.80
2018-07-09T04:22:17.104Z,9.50
2018-07-09T04:24:45.768Z,9.40
2018-07-09T04:27:14.468Z,9.70
2018-07-09T04:29:43.289Z,10.20
2018-07-09T04:32:11.987Z,10.33
2018-07-09T04:34:40.689Z,9.17
2018-07-09T04:37:09.377Z,9.10
2018-07-09T04:39:38.061Z,10.10
2018-07-09T04:42:06.777Z,9.27
2018-07-09T04:44:35.099Z,9.73
2018-07-09T04:47:03.903Z,10.03
2018-07-09T04:49:32.596Z,9.80
2018-07-09T04:52:01.266Z,9.77
2018-07-09T04:54:29.941Z,10.70
2018-07-09T04:56:58.645Z,9.87
2018-07-09T04:59:27.345Z,9.87
2018-07-09T05:01:56.017Z,9.87
2018-07-09T05:04:24.754Z,11.20
2018-07-09T05:06:53.463Z,9.80
2018-07-09T05:09:22.130Z,10.07
2018-07-09T05:11:50.851Z,9.90
2018-07-09T05:14:19.512Z,11.80
2018-07-09T05:16:48.238Z,10.33
2018-07-09T05:19:16.917Z,13.60
2018-07-09T05:21:45.660Z,12.57
2018-07-09T05:24:14.354Z,9.80
2018-07-09T05:26:43.049Z,10.53
2018-07-09T05:29:11.346Z,10.83
2018-07-09T05:31:40.093Z,10.30
2018-07-09T05:34:08.786Z,11.07
2018-07-09T05:36:37.502Z,10.90
2018-07-09T05:39:06.871Z,11.00
2018-07-09T05:41:35.658Z,11.47
2018-07-09T05:44:04.405Z,11.00
2018-07-09T05:46:33.238Z,10.47
2018-07-09T05:49:02.867Z,11.20
2018-07-09T05:51:31.590Z,10.57
2018-07-09T05:54:00.270Z,13.00
2018-07-09T05:56:29.021Z,11.73
2018-07-09T05:58:57.976Z,12.17
2018-07-09T06:01:26.657Z,13.13
2018-07-09T06:03:55.365Z,11.83
2018-07-09T06:06:24.070Z,12.83
2018-07-09T06:08:52.804Z,11.27
2018-07-09T06:11:21.469Z,14.00
2018-07-09T06:13:50.322Z,13.37
2018-07-09T06:16:19.016Z,12.30
2018-07-09T06:18:47.714Z,10.93
2018-07-09T06:21:16.413Z,16.93
2018-07-09T06:23:46.021Z,11.37
2018-07-09T06:26:15.529Z,11.20
2018-07-09T06:28:45.075Z,11.13
2018-07-09T06:31:14.511Z,11.87
2018-07-09T06:33:44.815Z,11.77
2018-07-09T06:36:14.064Z,12.87
2018-07-09T06:38:43.622Z,11.40
2018-07-09T06:41:13.230Z,13.37
2018-07-09T06:43:41.982Z,12.73
2018-07-09T06:46:12.195Z,10.73
2018-07-09T06:48:43.027Z,11.97
2018-07-09T06:51:12.252Z,11.17
2018-07-09T06:53:40.945Z,12.33
2018-07-09T06:56:09.636Z,9.60
2018-07-09T06:58:38.337Z,10.87
2018-07-09T07:01:07.028Z,9.43
2018-07-09T07:03:35.714Z,9.37
2018-07-09T07:06:04.438Z,11.80
2018-07-09T07:08:33.162Z,11.87
2018-07-09T07:11:01.845Z,9.53
2018-07-09T07:13:30.544Z,10.10
2018-07-09T07:15:59.258Z,11.23
2018-07-09T07:18:27.937Z,9.60
2018-07-09T07:20:56.782Z,10.77
2018-07-09T07:23:25.456Z,11.10
2018-07-09T07:25:54.255Z,8.40
2018-07-09T07:28:22.950Z,7.60
2018-07-09T07:30:51.704Z,9.33
2018-07-09T07:33:20.384Z,12.47
2018-07-09T07:35:49.145Z,10.53
2018-07-09T07:38:17.926Z,11.57
2018-07-09T07:40:46.630Z,8.17
2018-07-09T07:43:15.205Z,8.03
2018-07-09T07:45:43.925Z,8.67
2018-07-09T07:48:12.820Z,9.13
2018-07-09T07:50:41.760Z,10.63
2018-07-09T07:53:10.349Z,8.57
2018-07-09T07:55:39.110Z,11.90
2018-07-09T07:58:07.829Z,12.30
2018-07-09T08:00:36.528Z,9.83
2018-07-09T08:03:05.239Z,9.20
2018-07-09T08:05:33.938Z,11.07
2018-07-09T08:08:02.605Z,10.23
2018-07-09T08:10:31.358Z,9.77
2018-07-09T08:13:13.488Z,10.37
2018-07-09T08:15:28.879Z,10.07
2018-07-09T08:17:57.212Z,9.47
2018-07-09T08:20:25.907Z,8.60
2018-07-09T08:22:54.643Z,10.37
2018-07-09T08:25:23.445Z,7.63
2018-07-09T08:27:52.101Z,10.80
2018-07-09T08:30:20.792Z,9.30
2018-07-09T08:32:49.519Z,9.83
2018-07-09T08:35:18.173Z,9.30
2018-07-09T08:37:47.083Z,9.40
2018-07-09T08:40:15.753Z,8.27
2018-07-09T08:42:44.796Z,8.67
2018-07-09T08:45:13.490Z,10.47
2018-07-09T08:47:42.170Z,8.17
2018-07-09T08:50:10.878Z,8.00
2018-07-09T08:52:39.572Z,7.93
2018-07-09T08:55:08.347Z,8.73
2018-07-09T08:57:37.022Z,9.13
2018-07-09T09:00:05.761Z,8.20
2018-07-09T09:02:35.211Z,9.53
2018-07-09T09:05:04.304Z,8.00
2018-07-09T09:07:33.321Z,7.60
2018-07-09T09:10:01.983Z,9.13
2018-07-09T09:12:30.673Z,8.10
2018-07-09T09:14:59.441Z,9.77
2018-07-09T09:17:28.177Z,8.97
2018-07-09T09:19:56.902Z,7.43
2018-07-09T09:22:25.581Z,8.60
2018-07-09T09:24:54.237Z,7.67
2018-07-09T09:27:22.885Z,7.73
2018-07-09T09:29:51.560Z,7.77
2018-07-09T09:32:20.262Z,7.87
2018-07-09T09:34:48.952Z,8.30
2018-07-09T09:37:17.695Z,6.97
2018-07-09T09:39:46.497Z,7.30
2018-07-09T09:42:15.152Z,6.83
2018-07-09T09:44:43.842Z,7.23
2018-07-09T09:47:12.567Z,8.90
2018-07-09T09:49:41.240Z,6.50
2018-07-09T09:52:09.984Z,9.37
2018-07-09T09:54:38.694Z,7.10
2018-07-09T09:57:07.549Z,7.83
2018-07-09T09:59:36.296Z,8.27
2018-07-09T10:02:05.040Z,8.23
2018-07-09T10:04:33.784Z,8.53
2018-07-09T10:07:02.620Z,8.17
2018-07-09T10:09:31.351Z,7.23
2018-07-09T10:12:00.001Z,7.40
2018-07-09T10:14:28.672Z,6.80
2018-07-09T10:16:57.457Z,8.10
2018-07-09T10:19:26.096Z,6.70
2018-07-09T10:21:55.056Z,6.70
2018-07-09T10:24:23.816Z,6.00
2018-07-09T10:26:52.477Z,8.17
2018-07-09T10:29:21.198Z,5.93
2018-07-09T10:31:49.904Z,5.93
2018-07-09T10:34:18.721Z,6.70
2018-07-09T10:36:47.422Z,7.43
2018-07-09T10:39:16.113Z,6.47
2018-07-09T10:41:44.881Z,6.63
2018-07-09T10:44:13.568Z,6.27
2018-07-09T10:46:42.273Z,7.10
2018-07-09T10:49:10.978Z,7.20
2018-07-09T10:51:39.676Z,8.40
2018-07-09T10:54:08.423Z,6.97
2018-07-09T10:56:37.110Z,8.97
2018-07-09T10:59:05.978Z,5.60
2018-07-09T11:01:34.725Z,4.67
2018-07-09T11:04:03.470Z,7.63
2018-07-09T11:06:32.168Z,5.23
2018-07-09T11:09:00.861Z,6.00
2018-07-09T11:11:29.874Z,5.50
2018-07-09T11:13:58.549Z,4.87
2018-07-09T11:16:27.169Z,6.90
2018-07-09T11:18:55.835Z,6.03
2018-07-09T11:21:24.529Z,5.67
2018-07-09T11:23:53.321Z,5.60
2018-07-09T11:26:21.986Z,5.30
2018-07-09T11:28:50.664Z,5.20
2018-07-09T11:31:19.423Z,7.20
2018-07-09T11:33:48.093Z,6.03
2018-07-09T11:36:16.812Z,5.57
2018-07-09T11:38:46.176Z,5.83
2018-07-09T11:41:14.996Z,6.10
2018-07-09T11:43:43.680Z,9.47
2018-07-09T11:46:12.363Z,5.40
2018-07-09T11:48:41.053Z,5.40
2018-07-09T11:51:09.791Z,5.57
2018-07-09T11:53:38.880Z,4.93
2018-07-09T11:56:07.580Z,7.83
2018-07-09T11:58:36.306Z,5.40
2018-07-09T12:01:04.993Z,6.03
2018-07-09T12:03:33.671Z,5.93
2018-07-09T12:06:02.382Z,6.20
2018-07-09T12:08:31.023Z,7.10
2018-07-09T12:10:59.677Z,6.10
2018-07-09T12:13:28.366Z,6.83
2018-07-09T12:15:57.026Z,6.70
2018-07-09T12:18:25.846Z,6.33
2018-07-09T12:20:54.504Z,6.07
2018-07-09T12:23:23.180Z,6.63
2018-07-09T12:25:51.881Z,5.17
2018-07-09T12:28:20.566Z,5.77
2018-07-09T12:30:50.137Z,9.17
2018-07-09T12:33:18.807Z,7.70
2018-07-09T12:35:47.501Z,5.00
2018-07-09T12:38:16.217Z,6.23
2018-07-09T12:40:44.896Z,5.47
2018-07-09T12:43:13.753Z,5.70
2018-07-09T12:45:42.406Z,6.13
2018-07-09T12:48:11.073Z,5.83
2018-07-09T12:50:39.801Z,5.97
2018-07-09T12:53:08.477Z,6.20
2018-07-09T12:55:37.212Z,7.10
2018-07-09T12:58:05.945Z,5.37
2018-07-09T13:00:34.646Z,5.53
2018-07-09T13:03:03.329Z,8.03
2018-07-09T13:05:32.033Z,5.37
2018-07-09T13:08:00.733Z,5.10
2018-07-09T13:10:29.363Z,8.57
2018-07-09T13:12:58.060Z,6.23
2018-07-09T13:15:26.743Z,5.40
2018-07-09T13:17:55.443Z,5.03
2018-07-09T13:20:24.522Z,4.50
2018-07-09T13:22:53.390Z,5.13
2018-07-09T13:25:22.091Z,6.47
2018-07-09T13:27:50.762Z,4.97
2018-07-09T13:30:19.457Z,4.73
2018-07-09T13:32:48.367Z,4.73
2018-07-09T13:35:17.125Z,6.03
2018-07-09T13:37:45.902Z,4.63
2018-07-09T13:40:14.557Z,8.57
2018-07-09T13:42:42.869Z,5.20
2018-07-09T13:45:11.736Z,4.20
2018-07-09T13:47:40.517Z,4.73
2018-07-09T13:50:09.242Z,4.70
2018-07-09T13:52:37.957Z,6.33
2018-07-09T13:55:06.685Z,4.53
2018-07-09T13:57:35.685Z,4.10
2018-07-09T14:00:05.114Z,4.57
2018-07-09T14:02:33.842Z,4.13
2018-07-09T14:05:02.557Z,4.87
2018-07-09T14:07:31.217Z,9.17
2018-07-09T14:09:59.917Z,4.37
2018-07-09T14:12:28.574Z,5.43
2018-07-09T14:14:58.365Z,3.93
2018-07-09T14:17:27.197Z,4.80
2018-07-09T14:20:16.332Z,4.10
2018-07-09T14:22:45.034Z,4.83
2018-07-09T14:25:13.729Z,6.00
2018-07-09T14:27:42.509Z,3.80
2018-07-09T14:30:11.198Z,3.70
2018-07-09T14:32:40.285Z,3.43
2018-07-09T14:35:10.772Z,6.17
2018-07-09T14:37:39.543Z,6.03
2018-07-09T14:40:08.255Z,3.87
2018-07-09T14:42:37.143Z,3.63
2018-07-09T14:45:06.010Z,4.03
2018-07-09T14:47:34.716Z,6.37
2018-07-09T14:50:03.777Z,3.40
2018-07-09T14:52:32.461Z,3.20
2018-07-09T14:55:01.271Z,3.30
2018-07-09T14:57:29.994Z,3.33
2018-07-09T14:59:58.716Z,3.27
2018-07-09T15:02:27.404Z,3.07
2018-07-09T15:04:56.160Z,9.17
2018-07-09T15:07:25.133Z,3.37
2018-07-09T15:09:53.806Z,3.47
2018-07-09T15:12:22.507Z,4.07
2018-07-09T15:14:51.268Z,3.60
2018-07-09T15:17:19.985Z,3.93
2018-07-09T15:19:48.670Z,3.23
2018-07-09T15:22:17.384Z,3.33
2018-07-09T15:24:46.091Z,5.13
2018-07-09T15:27:14.767Z,3.00
2018-07-09T15:29:43.477Z,5.60
2018-07-09T15:32:22.195Z,2.60
2018-07-09T15:34:57.367Z,3.73
2018-07-09T15:37:26.318Z,2.83
2018-07-09T15:39:55.336Z,2.57
2018-07-09T15:42:24.057Z,3.87
2018-07-09T15:44:52.792Z,3.43
2018-07-09T15:47:21.148Z,3.87
2018-07-09T15:49:49.841Z,2.77
2018-07-09T15:52:18.558Z,2.33
2018-07-09T15:54:47.250Z,4.50
2018-07-09T15:57:19.680Z,6.37
2018-07-09T16:00:00.366Z,2.60
2018-07-09T16:02:29.451Z,2.90
2018-07-09T16:04:58.458Z,3.47
2018-07-09T16:07:27.837Z,2.83
2018-07-09T16:09:56.578Z,6.03
2018-07-09T16:12:25.248Z,2.73
2018-07-09T16:14:54.029Z,2.27
2018-07-09T16:17:22.717Z,3.53
2018-07-09T16:19:51.421Z,2.70
2018-07-09T16:22:20.084Z,3.10
2018-07-09T16:24:48.752Z,3.97
2018-07-09T16:27:17.409Z,2.53
2018-07-09T16:29:46.067Z,2.80
2018-07-09T16:32:14.776Z,3.47
2018-07-09T16:34:43.442Z,3.43
2018-07-09T16:37:12.151Z,2.20
2018-07-09T16:39:40.900Z,3.30
2018-07-09T16:42:09.583Z,2.77
2018-07-09T16:44:38.271Z,2.50
2018-07-09T16:47:07.028Z,2.83
2018-07-09T16:49:35.857Z,2.27
2018-07-09T16:52:04.577Z,1.80
2018-07-09T16:54:33.274Z,3.07
2018-07-09T16:57:01.906Z,2.00
2018-07-09T16:59:30.240Z,2.90
2018-07-09T17:01:58.890Z,1.97
2018-07-09T17:04:27.539Z,2.30
2018-07-09T17:06:56.214Z,2.30
2018-07-09T17:09:24.881Z,3.33
2018-07-09T17:11:53.587Z,1.73
2018-07-09T17:14:22.313Z,2.20
2018-07-09T17:16:51.010Z,1.80
2018-07-09T17:19:19.715Z,1.87
2018-07-09T17:21:48.375Z,1.93
2018-07-09T17:24:17.213Z,2.13
2018-07-09T17:26:45.999Z,1.60
2018-07-09T17:29:14.644Z,1.70
2018-07-09T17:31:43.286Z,1.80
2018-07-09T17:34:12.375Z,3.13
2018-07-09T17:36:43.028Z,1.83
2018-07-09T17:39:11.834Z,1.90
2018-07-09T17:41:40.505Z,3.90
2018-07-09T17:44:09.212Z,1.83
2018-07-09T17:46:37.894Z,2.63
2018-07-09T17:49:06.579Z,1.90
2018-07-09T17:51:35.622Z,2.17
2018-07-09T17:54:04.303Z,2.97
2018-07-09T17:56:33.027Z,2.33
2018-07-09T17:59:01.690Z,1.90
2018-07-09T18:01:30.425Z,2.33
2018-07-09T18:03:59.089Z,1.97
2018-07-09T18:06:27.883Z,2.03
2018-07-09T18:08:56.562Z,2.33
2018-07-09T18:11:25.232Z,3.13
2018-07-09T18:18:43.373Z,2.23
2018-07-09T18:21:12.441Z,2.27
2018-07-09T18:23:41.153Z,3.53
2018-07-09T18:26:09.865Z,2.33
2018-07-09T18:28:38.654Z,6.93
2018-07-09T18:31:07.265Z,2.37
2018-07-09T18:33:35.925Z,3.53
2018-07-09T18:36:04.755Z,3.63
2018-07-09T18:38:33.491Z,2.37
2018-07-09T18:41:02.145Z,3.30
2018-07-09T18:43:31.121Z,2.10
2018-07-09T18:45:59.917Z,2.03
2018-07-09T18:48:28.672Z,3.17
2018-07-09T18:50:57.272Z,2.20
2018-07-09T18:53:26.308Z,2.07
2018-07-09T18:55:55.054Z,2.40
2018-07-09T18:58:23.777Z,2.60
2018-07-09T19:00:52.514Z,3.00
2018-07-09T19:03:21.254Z,2.63
2018-07-09T19:06:05.390Z,1.77
2018-07-09T19:08:34.218Z,2.13
2018-07-09T19:11:03.334Z,1.80
2018-07-09T19:13:31.720Z,2.03
2018-07-09T19:16:00.666Z,1.80
2018-07-09T19:18:40.684Z,3.43
2018-07-09T19:21:32.770Z,2.60
2018-07-09T19:24:00.706Z,2.17
2018-07-09T19:26:28.144Z,3.43
2018-07-09T19:28:56.382Z,2.10
2018-07-09T19:31:33.537Z,1.80
2018-07-09T19:34:01.060Z,1.70
2018-07-09T19:36:28.554Z,3.50
2018-07-09T19:38:56.283Z,2.67
2018-07-09T19:41:23.803Z,1.60
2018-07-09T19:43:51.229Z,2.40
2018-07-09T19:46:18.747Z,2.27
2018-07-09T19:48:46.188Z,3.93
2018-07-09T19:51:13.697Z,3.97
2018-07-09T19:53:41.203Z,1.77
2018-07-09T19:56:08.661Z,2.77
2018-07-09T19:58:36.163Z,2.50
2018-07-09T20:01:03.610Z,3.40
2018-07-09T20:03:31.113Z,4.27
2018-07-09T20:05:59.049Z,2.10
2018-07-09T20:08:31.894Z,2.37
2018-07-09T20:11:04.700Z,3.23
2018-07-09T20:13:51.356Z,2.40
2018-07-09T20:16:24.073Z,2.23
2018-07-09T20:18:53.045Z,3.00
2018-07-09T20:21:20.530Z,2.37
2018-07-09T20:23:48.005Z,4.33
2018-07-09T20:26:15.571Z,3.00
2018-07-09T20:28:44.260Z,2.30
2018-07-09T20:31:11.803Z,2.27
2018-07-09T20:33:39.424Z,2.80
2018-07-09T20:36:19.490Z,2.87
2018-07-09T20:38:46.993Z,3.37
2018-07-09T20:41:14.741Z,2.90
2018-07-09T20:43:42.173Z,2.17
2018-07-09T20:46:09.641Z,2.07
2018-07-09T20:48:37.081Z,7.07
2018-07-09T20:51:04.544Z,5.43
2018-07-09T20:53:31.972Z,2.90
2018-07-09T20:55:59.442Z,4.00
2018-07-09T20:58:26.968Z,3.30
2018-07-09T21:00:56.257Z,4.20
2018-07-09T21:03:23.846Z,2.60
2018-07-09T21:05:51.300Z,6.33
2018-07-09T21:08:18.842Z,5.57
2018-07-09T21:10:46.329Z,2.97
2018-07-09T21:13:13.785Z,4.30
2018-07-09T21:15:41.276Z,2.63
2018-07-09T21:18:08.738Z,3.83
2018-07-09T21:20:36.198Z,3.23
2018-07-09T21:23:03.687Z,3.70
2018-07-09T21:25:31.131Z,3.13
2018-07-09T21:27:58.616Z,6.00
2018-07-09T21:30:26.059Z,4.27
2018-07-09T21:32:53.489Z,2.97
2018-07-09T21:35:20.942Z,2.77
2018-07-09T21:37:48.549Z,2.93
2018-07-09T21:40:15.877Z,2.73
2018-07-09T21:42:43.305Z,3.10
2018-07-09T21:45:10.757Z,3.87
2018-07-09T21:47:38.233Z,2.70
2018-07-09T21:50:05.694Z,3.13
2018-07-09T21:52:33.164Z,3.07
2018-07-09T21:55:00.611Z,2.50
2018-07-09T21:57:28.068Z,3.27
2018-07-09T21:59:55.545Z,2.80
2018-07-09T22:02:22.994Z,3.93
2018-07-09T22:04:50.498Z,3.17
2018-07-09T22:07:17.955Z,5.80
2018-07-09T22:09:45.414Z,3.50
2018-07-09T22:12:12.874Z,2.60
2018-07-09T22:14:40.345Z,2.40
2018-07-09T22:17:07.815Z,2.80
2018-07-09T22:19:35.264Z,2.40
2018-07-09T22:22:02.709Z,3.00
2018-07-09T22:24:30.219Z,2.67
2018-07-09T22:26:57.652Z,3.00
2018-07-09T22:29:25.117Z,2.70
2018-07-09T22:31:53.820Z,2.33
2018-07-09T22:34:22.530Z,4.70
2018-07-09T22:36:51.829Z,2.57
2018-07-09T22:39:20.567Z,2.87
2018-07-09T22:41:49.360Z,4.13
2018-07-09T22:44:19.916Z,5.23
2018-07-09T22:46:49.224Z,3.60
2018-07-09T22:49:17.989Z,2.70
2018-07-09T22:51:47.278Z,2.70
2018-07-09T22:54:16.181Z,5.47
2018-07-09T22:56:44.862Z,4.53
2018-07-09T22:59:13.640Z,3.53
2018-07-09T23:01:42.393Z,4.03
2018-07-09T23:04:11.216Z,3.93
2018-07-09T23:06:39.974Z,2.50
2018-07-09T23:09:19.607Z,2.60
2018-07-09T23:14:03.234Z,2.93
2018-07-09T23:18:59.547Z,3.07
2018-07-09T23:22:40.883Z,2.80
2018-07-09T23:25:08.345Z,2.83
2018-07-09T23:27:35.837Z,2.53
2018-07-09T23:30:03.339Z,3.00
2018-07-09T23:32:30.817Z,2.80
2018-07-09T23:34:58.308Z,2.63
2018-07-09T23:37:25.761Z,4.37
2018-07-09T23:39:53.211Z,3.53
2018-07-09T23:42:20.705Z,3.00
2018-07-09T23:44:48.190Z,3.57
2018-07-09T23:47:15.700Z,3.10
2018-07-09T23:49:43.127Z,4.53
2018-07-09T23:52:10.588Z,2.73
2018-07-09T23:54:38.066Z,2.63
2018-07-09T23:58:21.673Z,2.60
